Terminal Aerodrome Forecast
Issued by NWS Grand Forks, ND

Home | Current Version | Previous Version | Graphics & Text | Print | Product List | Glossary On
Versions: 1 2 3 4 5 6 7 8 9 10 11 12 13 14
542
FTUS43 KFGF 151134 AAA
TAFGFK
TAF AMD
KGFK 151134Z 1512/1612 20005KT P6SM SCT200
     FM151400 22007KT P6SM BKN080
     FM151700 27009KT P6SM BKN110
     FM152000 30013KT P6SM SCT080
     FM160200 26006KT P6SM SKC
     FM160700 23006KT P6SM SKC=

USA.gov is the U.S. government's official web portal to all federal, state and local government web resources and services.